sensor_id;sensor_type;location;lat;lon;timestamp;P1;durP1;ratioP1;P2;durP2;ratioP2
43933;SDS011;59081;42.706;23.306;2023-02-03T00:00:44;4.90;;;3.40;;
43933;SDS011;59081;42.706;23.306;2023-02-03T00:03:10;4.30;;;3.00;;
43933;SDS011;59081;42.706;23.306;2023-02-03T00:05:35;5.60;;;3.42;;
43933;SDS011;59081;42.706;23.306;2023-02-03T00:08:01;5.80;;;2.95;;
43933;SDS011;59081;42.706;23.306;2023-02-03T00:10:28;5.65;;;3.53;;
43933;SDS011;59081;42.706;23.306;2023-02-03T00:12:54;4.40;;;2.92;;
43933;SDS011;59081;42.706;23.306;2023-02-03T00:15:21;5.47;;;3.45;;
43933;SDS011;59081;42.706;23.306;2023-02-03T00:17:47;6.35;;;3.63;;
43933;SDS011;59081;42.706;23.306;2023-02-03T00:20:13;7.68;;;3.50;;
43933;SDS011;59081;42.706;23.306;2023-02-03T00:22:39;5.53;;;3.22;;
43933;SDS011;59081;42.706;23.306;2023-02-03T00:25:04;4.63;;;3.13;;
43933;SDS011;59081;42.706;23.306;2023-02-03T00:27:30;6.63;;;3.78;;
43933;SDS011;59081;42.706;23.306;2023-02-03T00:29:56;6.40;;;3.58;;
43933;SDS011;59081;42.706;23.306;2023-02-03T00:32:22;5.72;;;3.88;;
43933;SDS011;59081;42.706;23.306;2023-02-03T00:34:48;6.28;;;4.20;;
43933;SDS011;59081;42.706;23.306;2023-02-03T00:37:13;4.72;;;3.88;;
43933;SDS011;59081;42.706;23.306;2023-02-03T00:39:39;7.03;;;4.10;;
43933;SDS011;59081;42.706;23.306;2023-02-03T00:42:04;10.20;;;4.28;;
43933;SDS011;59081;42.706;23.306;2023-02-03T00:44:30;5.03;;;3.65;;
43933;SDS011;59081;42.706;23.306;2023-02-03T00:46:57;9.10;;;6.10;;
43933;SDS011;59081;42.706;23.306;2023-02-03T00:49:23;7.07;;;4.57;;
43933;SDS011;59081;42.706;23.306;2023-02-03T00:51:48;7.07;;;4.32;;
43933;SDS011;59081;42.706;23.306;2023-02-03T00:54:14;7.43;;;5.00;;
43933;SDS011;59081;42.706;23.306;2023-02-03T00:56:40;8.13;;;4.63;;
43933;SDS011;59081;42.706;23.306;2023-02-03T00:59:05;7.55;;;4.70;;
43933;SDS011;59081;42.706;23.306;2023-02-03T01:01:32;4.82;;;3.65;;
43933;SDS011;59081;42.706;23.306;2023-02-03T01:03:58;3.25;;;2.30;;
43933;SDS011;59081;42.706;23.306;2023-02-03T01:06:24;6.22;;;3.83;;
43933;SDS011;59081;42.706;23.306;2023-02-03T01:08:50;7.72;;;4.10;;
43933;SDS011;59081;42.706;23.306;2023-02-03T01:11:17;6.07;;;3.92;;
43933;SDS011;59081;42.706;23.306;2023-02-03T01:13:45;5.82;;;3.67;;
43933;SDS011;59081;42.706;23.306;2023-02-03T01:16:11;4.35;;;3.10;;
43933;SDS011;59081;42.706;23.306;2023-02-03T01:18:38;5.13;;;3.80;;
43933;SDS011;59081;42.706;23.306;2023-02-03T01:21:12;5.03;;;3.08;;
43933;SDS011;59081;42.706;23.306;2023-02-03T01:23:40;5.85;;;3.83;;
43933;SDS011;59081;42.706;23.306;2023-02-03T01:26:07;4.55;;;3.40;;
43933;SDS011;59081;42.706;23.306;2023-02-03T01:28:35;6.18;;;3.05;;
43933;SDS011;59081;42.706;23.306;2023-02-03T01:31:11;4.30;;;3.10;;
43933;SDS011;59081;42.706;23.306;2023-02-03T01:33:39;3.47;;;2.58;;
43933;SDS011;59081;42.706;23.306;2023-02-03T01:36:06;4.70;;;2.05;;
43933;SDS011;59081;42.706;23.306;2023-02-03T01:38:35;3.55;;;2.75;;
43933;SDS011;59081;42.706;23.306;2023-02-03T01:41:01;3.42;;;2.58;;
43933;SDS011;59081;42.706;23.306;2023-02-03T01:43:29;3.00;;;2.05;;
43933;SDS011;59081;42.706;23.306;2023-02-03T01:45:56;5.15;;;2.50;;
43933;SDS011;59081;42.706;23.306;2023-02-03T01:48:23;4.30;;;2.65;;
43933;SDS011;59081;42.706;23.306;2023-02-03T01:50:49;3.50;;;2.03;;
43933;SDS011;59081;42.706;23.306;2023-02-03T01:53:14;3.30;;;2.42;;
43933;SDS011;59081;42.706;23.306;2023-02-03T01:55:41;4.28;;;2.45;;
43933;SDS011;59081;42.706;23.306;2023-02-03T02:00:45;2.97;;;2.10;;
43933;SDS011;59081;42.706;23.306;2023-02-03T02:03:12;3.58;;;2.20;;
43933;SDS011;59081;42.706;23.306;2023-02-03T02:05:47;2.08;;;1.80;;
43933;SDS011;59081;42.706;23.306;2023-02-03T02:08:17;2.10;;;1.90;;
43933;SDS011;59081;42.706;23.306;2023-02-03T02:10:43;2.30;;;2.00;;
43933;SDS011;59081;42.706;23.306;2023-02-03T02:13:09;2.75;;;2.00;;
43933;SDS011;59081;42.706;23.306;2023-02-03T02:21:21;3.50;;;1.95;;
43933;SDS011;59081;42.706;23.306;2023-02-03T02:24:23;4.10;;;2.20;;
43933;SDS011;59081;42.706;23.306;2023-02-03T02:26:55;3.30;;;2.15;;
43933;SDS011;59081;42.706;23.306;2023-02-03T02:43:20;3.70;;;3.00;;
43933;SDS011;59081;42.706;23.306;2023-02-03T02:45:55;3.63;;;2.38;;
43933;SDS011;59081;42.706;23.306;2023-02-03T02:50:56;5.03;;;2.90;;
43933;SDS011;59081;42.706;23.306;2023-02-03T02:53:25;4.53;;;2.97;;
43933;SDS011;59081;42.706;23.306;2023-02-03T02:55:54;4.70;;;3.42;;
43933;SDS011;59081;42.706;23.306;2023-02-03T02:58:21;3.90;;;3.03;;
43933;SDS011;59081;42.706;23.306;2023-02-03T03:00:48;8.02;;;3.20;;
43933;SDS011;59081;42.706;23.306;2023-02-03T03:03:16;3.78;;;2.95;;
43933;SDS011;59081;42.706;23.306;2023-02-03T03:05:45;3.88;;;2.80;;
43933;SDS011;59081;42.706;23.306;2023-02-03T03:08:16;3.80;;;3.00;;
43933;SDS011;59081;42.706;23.306;2023-02-03T03:10:45;6.15;;;3.50;;
43933;SDS011;59081;42.706;23.306;2023-02-03T03:13:31;3.42;;;3.10;;
43933;SDS011;59081;42.706;23.306;2023-02-03T03:16:01;3.65;;;2.60;;
43933;SDS011;59081;42.706;23.306;2023-02-03T03:18:38;3.88;;;2.90;;
43933;SDS011;59081;42.706;23.306;2023-02-03T03:21:11;5.82;;;2.85;;
43933;SDS011;59081;42.706;23.306;2023-02-03T03:23:42;4.03;;;2.40;;
43933;SDS011;59081;42.706;23.306;2023-02-03T03:26:23;4.03;;;2.65;;
43933;SDS011;59081;42.706;23.306;2023-02-03T03:29:10;2.75;;;2.45;;
43933;SDS011;59081;42.706;23.306;2023-02-03T03:31:39;3.63;;;2.20;;
43933;SDS011;59081;42.706;23.306;2023-02-03T03:34:07;2.75;;;2.30;;
43933;SDS011;59081;42.706;23.306;2023-02-03T03:36:43;5.00;;;2.65;;
43933;SDS011;59081;42.706;23.306;2023-02-03T03:41:59;4.43;;;2.38;;
43933;SDS011;59081;42.706;23.306;2023-02-03T03:44:48;3.17;;;2.15;;
43933;SDS011;59081;42.706;23.306;2023-02-03T03:47:22;3.67;;;2.35;;
43933;SDS011;59081;42.706;23.306;2023-02-03T03:49:53;2.45;;;2.10;;
43933;SDS011;59081;42.706;23.306;2023-02-03T03:52:21;4.30;;;2.97;;
43933;SDS011;59081;42.706;23.306;2023-02-03T03:54:52;3.53;;;2.45;;
43933;SDS011;59081;42.706;23.306;2023-02-03T03:57:31;3.13;;;2.45;;
43933;SDS011;59081;42.706;23.306;2023-02-03T04:00:07;2.55;;;2.05;;
43933;SDS011;59081;42.706;23.306;2023-02-03T04:02:36;2.75;;;2.45;;
43933;SDS011;59081;42.706;23.306;2023-02-03T04:05:03;4.03;;;2.90;;
43933;SDS011;59081;42.706;23.306;2023-02-03T04:07:41;5.90;;;3.00;;
43933;SDS011;59081;42.706;23.306;2023-02-03T04:10:13;5.88;;;2.67;;
43933;SDS011;59081;42.706;23.306;2023-02-03T04:12:45;5.18;;;2.55;;
43933;SDS011;59081;42.706;23.306;2023-02-03T04:15:10;2.90;;;2.70;;
43933;SDS011;59081;42.706;23.306;2023-02-03T04:17:36;3.45;;;2.53;;
43933;SDS011;59081;42.706;23.306;2023-02-03T04:20:04;4.43;;;2.17;;
43933;SDS011;59081;42.706;23.306;2023-02-03T04:22:30;6.07;;;2.90;;
43933;SDS011;59081;42.706;23.306;2023-02-03T04:24:55;5.45;;;2.58;;
43933;SDS011;59081;42.706;23.306;2023-02-03T04:27:23;4.82;;;2.83;;
43933;SDS011;59081;42.706;23.306;2023-02-03T04:29:49;4.82;;;3.05;;
43933;SDS011;59081;42.706;23.306;2023-02-03T04:32:15;4.07;;;2.45;;
43933;SDS011;59081;42.706;23.306;2023-02-03T04:34:41;3.50;;;2.85;;
43933;SDS011;59081;42.706;23.306;2023-02-03T04:37:06;3.47;;;2.88;;
43933;SDS011;59081;42.706;23.306;2023-02-03T04:39:32;3.17;;;2.53;;
43933;SDS011;59081;42.706;23.306;2023-02-03T04:41:58;3.17;;;2.67;;
43933;SDS011;59081;42.706;23.306;2023-02-03T04:44:23;3.53;;;3.22;;
43933;SDS011;59081;42.706;23.306;2023-02-03T04:46:49;5.05;;;3.28;;
43933;SDS011;59081;42.706;23.306;2023-02-03T04:49:14;4.00;;;2.63;;
43933;SDS011;59081;42.706;23.306;2023-02-03T04:51:41;5.72;;;3.03;;
43933;SDS011;59081;42.706;23.306;2023-02-03T04:54:08;2.63;;;2.42;;
43933;SDS011;59081;42.706;23.306;2023-02-03T04:56:34;3.33;;;2.88;;
43933;SDS011;59081;42.706;23.306;2023-02-03T04:59:01;3.92;;;3.25;;
43933;SDS011;59081;42.706;23.306;2023-02-03T05:01:26;4.82;;;3.17;;
43933;SDS011;59081;42.706;23.306;2023-02-03T05:03:52;5.40;;;3.28;;
43933;SDS011;59081;42.706;23.306;2023-02-03T05:06:21;5.05;;;3.42;;
43933;SDS011;59081;42.706;23.306;2023-02-03T05:08:51;3.65;;;2.78;;
43933;SDS011;59081;42.706;23.306;2023-02-03T05:11:17;4.35;;;3.20;;
43933;SDS011;59081;42.706;23.306;2023-02-03T05:13:42;2.95;;;2.70;;
43933;SDS011;59081;42.706;23.306;2023-02-03T05:16:08;4.18;;;3.30;;
43933;SDS011;59081;42.706;23.306;2023-02-03T05:18:33;3.95;;;3.17;;
43933;SDS011;59081;42.706;23.306;2023-02-03T05:20:59;6.97;;;3.28;;
43933;SDS011;59081;42.706;23.306;2023-02-03T05:23:24;3.67;;;3.20;;
43933;SDS011;59081;42.706;23.306;2023-02-03T05:25:50;6.43;;;3.13;;
43933;SDS011;59081;42.706;23.306;2023-02-03T05:28:15;5.63;;;3.92;;
43933;SDS011;59081;42.706;23.306;2023-02-03T05:30:41;3.63;;;3.08;;
43933;SDS011;59081;42.706;23.306;2023-02-03T05:33:06;5.20;;;4.25;;
43933;SDS011;59081;42.706;23.306;2023-02-03T05:35:32;6.82;;;3.45;;
43933;SDS011;59081;42.706;23.306;2023-02-03T05:37:58;4.55;;;3.40;;
43933;SDS011;59081;42.706;23.306;2023-02-03T05:40:23;8.65;;;4.15;;
43933;SDS011;59081;42.706;23.306;2023-02-03T05:43:08;4.85;;;2.75;;
43933;SDS011;59081;42.706;23.306;2023-02-03T05:45:33;4.43;;;3.60;;
43933;SDS011;59081;42.706;23.306;2023-02-03T05:47:59;4.82;;;3.55;;
43933;SDS011;59081;42.706;23.306;2023-02-03T05:50:28;4.95;;;3.47;;
43933;SDS011;59081;42.706;23.306;2023-02-03T05:53:02;11.55;;;4.65;;
43933;SDS011;59081;42.706;23.306;2023-02-03T05:55:29;7.53;;;3.50;;
43933;SDS011;59081;42.706;23.306;2023-02-03T05:57:55;7.15;;;4.15;;
43933;SDS011;59081;42.706;23.306;2023-02-03T06:00:21;7.05;;;4.32;;
43933;SDS011;59081;42.706;23.306;2023-02-03T06:02:57;4.35;;;3.25;;
43933;SDS011;59081;42.706;23.306;2023-02-03T06:05:26;6.30;;;3.67;;
43933;SDS011;59081;42.706;23.306;2023-02-03T06:07:52;4.93;;;3.25;;
43933;SDS011;59081;42.706;23.306;2023-02-03T06:10:18;4.95;;;3.22;;
43933;SDS011;59081;42.706;23.306;2023-02-03T06:12:43;5.80;;;3.25;;
43933;SDS011;59081;42.706;23.306;2023-02-03T06:15:09;2.30;;;2.10;;
43933;SDS011;59081;42.706;23.306;2023-02-03T06:17:35;5.25;;;3.28;;
43933;SDS011;59081;42.706;23.306;2023-02-03T06:20:05;4.25;;;2.85;;
43933;SDS011;59081;42.706;23.306;2023-02-03T06:22:32;4.80;;;2.90;;
43933;SDS011;59081;42.706;23.306;2023-02-03T06:24:58;4.53;;;3.28;;
43933;SDS011;59081;42.706;23.306;2023-02-03T06:27:24;2.40;;;1.85;;
43933;SDS011;59081;42.706;23.306;2023-02-03T06:29:49;7.55;;;4.57;;
43933;SDS011;59081;42.706;23.306;2023-02-03T06:32:15;5.28;;;4.53;;
43933;SDS011;59081;42.706;23.306;2023-02-03T06:34:41;7.18;;;3.95;;
43933;SDS011;59081;42.706;23.306;2023-02-03T06:37:06;3.35;;;3.05;;
43933;SDS011;59081;42.706;23.306;2023-02-03T06:39:32;4.13;;;3.72;;
43933;SDS011;59081;42.706;23.306;2023-02-03T06:41:57;4.80;;;4.40;;
43933;SDS011;59081;42.706;23.306;2023-02-03T06:44:23;3.55;;;2.95;;
43933;SDS011;59081;42.706;23.306;2023-02-03T06:46:48;7.35;;;3.42;;
43933;SDS011;59081;42.706;23.306;2023-02-03T06:49:15;3.80;;;3.22;;
43933;SDS011;59081;42.706;23.306;2023-02-03T06:51:44;4.65;;;3.33;;
43933;SDS011;59081;42.706;23.306;2023-02-03T06:54:10;6.20;;;2.72;;
43933;SDS011;59081;42.706;23.306;2023-02-03T06:56:36;4.07;;;2.90;;
43933;SDS011;59081;42.706;23.306;2023-02-03T06:59:02;4.10;;;3.40;;
43933;SDS011;59081;42.706;23.306;2023-02-03T07:01:27;5.55;;;3.85;;
43933;SDS011;59081;42.706;23.306;2023-02-03T07:03:54;5.40;;;3.47;;
43933;SDS011;59081;42.706;23.306;2023-02-03T07:06:22;8.70;;;3.95;;
43933;SDS011;59081;42.706;23.306;2023-02-03T07:08:48;4.47;;;3.53;;
43933;SDS011;59081;42.706;23.306;2023-02-03T07:11:13;6.22;;;3.63;;
43933;SDS011;59081;42.706;23.306;2023-02-03T07:13:39;1.45;;;1.35;;
43933;SDS011;59081;42.706;23.306;2023-02-03T07:16:05;4.60;;;3.38;;
43933;SDS011;59081;42.706;23.306;2023-02-03T07:18:31;5.95;;;3.38;;
43933;SDS011;59081;42.706;23.306;2023-02-03T07:20:56;4.22;;;2.70;;
43933;SDS011;59081;42.706;23.306;2023-02-03T07:23:22;4.93;;;4.03;;
43933;SDS011;59081;42.706;23.306;2023-02-03T07:25:47;7.88;;;3.58;;
43933;SDS011;59081;42.706;23.306;2023-02-03T07:28:13;3.83;;;3.10;;
43933;SDS011;59081;42.706;23.306;2023-02-03T07:30:38;4.15;;;3.35;;
43933;SDS011;59081;42.706;23.306;2023-02-03T07:33:04;3.40;;;2.25;;
43933;SDS011;59081;42.706;23.306;2023-02-03T07:35:30;5.63;;;2.50;;
43933;SDS011;59081;42.706;23.306;2023-02-03T07:37:55;4.00;;;2.95;;
43933;SDS011;59081;42.706;23.306;2023-02-03T07:40:21;3.92;;;2.08;;
43933;SDS011;59081;42.706;23.306;2023-02-03T07:42:47;3.75;;;3.28;;
43933;SDS011;59081;42.706;23.306;2023-02-03T07:45:14;3.97;;;2.80;;
43933;SDS011;59081;42.706;23.306;2023-02-03T07:47:41;5.53;;;2.88;;
43933;SDS011;59081;42.706;23.306;2023-02-03T07:50:07;5.63;;;3.53;;
43933;SDS011;59081;42.706;23.306;2023-02-03T07:52:33;3.83;;;3.10;;
43933;SDS011;59081;42.706;23.306;2023-02-03T07:54:59;3.58;;;2.13;;
43933;SDS011;59081;42.706;23.306;2023-02-03T07:57:25;2.03;;;1.83;;
43933;SDS011;59081;42.706;23.306;2023-02-03T07:59:51;2.45;;;1.88;;
43933;SDS011;59081;42.706;23.306;2023-02-03T08:02:16;1.75;;;1.65;;
43933;SDS011;59081;42.706;23.306;2023-02-03T08:04:42;5.72;;;2.50;;
43933;SDS011;59081;42.706;23.306;2023-02-03T08:07:08;5.18;;;2.60;;
43933;SDS011;59081;42.706;23.306;2023-02-03T08:09:33;2.42;;;1.42;;
43933;SDS011;59081;42.706;23.306;2023-02-03T08:11:59;2.05;;;1.65;;
43933;SDS011;59081;42.706;23.306;2023-02-03T08:14:24;3.40;;;2.22;;
43933;SDS011;59081;42.706;23.306;2023-02-03T08:16:50;3.45;;;2.22;;
43933;SDS011;59081;42.706;23.306;2023-02-03T08:19:15;8.15;;;2.53;;
43933;SDS011;59081;42.706;23.306;2023-02-03T08:21:41;2.42;;;2.05;;
43933;SDS011;59081;42.706;23.306;2023-02-03T08:24:06;2.10;;;1.63;;
43933;SDS011;59081;42.706;23.306;2023-02-03T08:26:33;1.90;;;1.63;;
43933;SDS011;59081;42.706;23.306;2023-02-03T08:29:00;3.72;;;2.58;;
43933;SDS011;59081;42.706;23.306;2023-02-03T08:31:25;7.40;;;3.53;;
43933;SDS011;59081;42.706;23.306;2023-02-03T08:33:54;2.42;;;1.50;;
43933;SDS011;59081;42.706;23.306;2023-02-03T08:36:19;5.05;;;2.42;;
43933;SDS011;59081;42.706;23.306;2023-02-03T08:38:45;3.55;;;2.40;;
43933;SDS011;59081;42.706;23.306;2023-02-03T08:41:11;5.75;;;3.30;;
43933;SDS011;59081;42.706;23.306;2023-02-03T08:43:40;4.55;;;1.85;;
43933;SDS011;59081;42.706;23.306;2023-02-03T08:46:17;2.72;;;1.15;;
43933;SDS011;59081;42.706;23.306;2023-02-03T08:48:43;1.50;;;1.25;;
43933;SDS011;59081;42.706;23.306;2023-02-03T08:51:09;4.63;;;1.40;;
43933;SDS011;59081;42.706;23.306;2023-02-03T08:53:37;5.18;;;1.65;;
43933;SDS011;59081;42.706;23.306;2023-02-03T08:56:06;3.33;;;1.67;;
43933;SDS011;59081;42.706;23.306;2023-02-03T08:58:33;2.80;;;1.75;;
43933;SDS011;59081;42.706;23.306;2023-02-03T09:01:06;4.40;;;1.88;;
43933;SDS011;59081;42.706;23.306;2023-02-03T09:03:36;5.13;;;1.65;;
43933;SDS011;59081;42.706;23.306;2023-02-03T09:06:02;6.18;;;2.08;;
43933;SDS011;59081;42.706;23.306;2023-02-03T09:08:29;3.17;;;1.42;;
43933;SDS011;59081;42.706;23.306;2023-02-03T09:10:55;1.70;;;1.33;;
43933;SDS011;59081;42.706;23.306;2023-02-03T09:13:21;4.72;;;1.95;;
43933;SDS011;59081;42.706;23.306;2023-02-03T09:15:46;3.25;;;2.17;;
43933;SDS011;59081;42.706;23.306;2023-02-03T09:18:12;2.78;;;2.45;;
43933;SDS011;59081;42.706;23.306;2023-02-03T09:20:37;7.15;;;2.67;;
43933;SDS011;59081;42.706;23.306;2023-02-03T09:23:03;3.13;;;1.90;;
43933;SDS011;59081;42.706;23.306;2023-02-03T09:25:29;2.00;;;1.40;;
43933;SDS011;59081;42.706;23.306;2023-02-03T09:27:54;1.17;;;1.02;;
43933;SDS011;59081;42.706;23.306;2023-02-03T09:30:20;3.25;;;1.80;;
43933;SDS011;59081;42.706;23.306;2023-02-03T09:32:45;3.45;;;2.03;;
43933;SDS011;59081;42.706;23.306;2023-02-03T09:35:18;1.85;;;1.73;;
43933;SDS011;59081;42.706;23.306;2023-02-03T09:37:44;1.65;;;1.23;;
43933;SDS011;59081;42.706;23.306;2023-02-03T09:40:26;3.83;;;1.52;;
43933;SDS011;59081;42.706;23.306;2023-02-03T09:43:14;2.65;;;1.58;;
43933;SDS011;59081;42.706;23.306;2023-02-03T09:46:06;2.60;;;1.90;;
43933;SDS011;59081;42.706;23.306;2023-02-03T09:48:47;4.22;;;2.03;;
43933;SDS011;59081;42.706;23.306;2023-02-03T09:51:18;1.92;;;1.38;;
43933;SDS011;59081;42.706;23.306;2023-02-03T09:53:49;2.97;;;1.45;;
43933;SDS011;59081;42.706;23.306;2023-02-03T09:56:24;2.45;;;1.75;;
43933;SDS011;59081;42.706;23.306;2023-02-03T09:58:53;2.05;;;1.55;;
43933;SDS011;59081;42.706;23.306;2023-02-03T10:01:19;1.73;;;1.30;;
43933;SDS011;59081;42.706;23.306;2023-02-03T10:03:54;1.02;;;0.93;;
43933;SDS011;59081;42.706;23.306;2023-02-03T10:19:35;3.45;;;1.08;;
43933;SDS011;59081;42.706;23.306;2023-02-03T10:22:09;2.58;;;1.50;;
43933;SDS011;59081;42.706;23.306;2023-02-03T10:24:52;1.90;;;1.45;;
43933;SDS011;59081;42.706;23.306;2023-02-03T10:27:22;0.70;;;0.70;;
43933;SDS011;59081;42.706;23.306;2023-02-03T10:29:55;2.08;;;1.30;;
43933;SDS011;59081;42.706;23.306;2023-02-03T10:32:42;3.17;;;1.50;;
43933;SDS011;59081;42.706;23.306;2023-02-03T10:35:12;1.02;;;0.98;;
43933;SDS011;59081;42.706;23.306;2023-02-03T10:37:41;3.50;;;1.88;;
43933;SDS011;59081;42.706;23.306;2023-02-03T10:43:03;2.90;;;2.30;;
43933;SDS011;59081;42.706;23.306;2023-02-03T10:45:48;4.78;;;2.65;;
43933;SDS011;59081;42.706;23.306;2023-02-03T10:48:15;3.95;;;2.97;;
43933;SDS011;59081;42.706;23.306;2023-02-03T10:50:43;4.18;;;2.05;;
43933;SDS011;59081;42.706;23.306;2023-02-03T10:53:20;3.47;;;1.70;;
43933;SDS011;59081;42.706;23.306;2023-02-03T10:55:49;0.70;;;0.70;;
43933;SDS011;59081;42.706;23.306;2023-02-03T10:58:27;2.03;;;1.70;;
43933;SDS011;59081;42.706;23.306;2023-02-03T11:01:11;2.13;;;1.88;;
43933;SDS011;59081;42.706;23.306;2023-02-03T11:03:40;2.45;;;1.50;;
43933;SDS011;59081;42.706;23.306;2023-02-03T11:06:17;1.80;;;1.23;;
43933;SDS011;59081;42.706;23.306;2023-02-03T11:08:44;1.75;;;1.40;;
43933;SDS011;59081;42.706;23.306;2023-02-03T11:11:34;7.00;;;1.88;;
43933;SDS011;59081;42.706;23.306;2023-02-03T11:16:31;1.50;;;1.38;;
43933;SDS011;59081;42.706;23.306;2023-02-03T11:19:04;2.42;;;1.40;;
43933;SDS011;59081;42.706;23.306;2023-02-03T11:21:41;1.70;;;1.20;;
43933;SDS011;59081;42.706;23.306;2023-02-03T11:26:55;4.72;;;1.58;;
43933;SDS011;59081;42.706;23.306;2023-02-03T11:29:27;2.42;;;1.30;;
43933;SDS011;59081;42.706;23.306;2023-02-03T11:31:56;3.78;;;1.95;;
43933;SDS011;59081;42.706;23.306;2023-02-03T11:34:26;1.42;;;1.00;;
43933;SDS011;59081;42.706;23.306;2023-02-03T11:36:57;2.15;;;1.67;;
43933;SDS011;59081;42.706;23.306;2023-02-03T11:39:48;6.00;;;2.10;;
43933;SDS011;59081;42.706;23.306;2023-02-03T11:42:21;4.55;;;2.63;;
43933;SDS011;59081;42.706;23.306;2023-02-03T11:44:48;4.97;;;1.77;;
43933;SDS011;59081;42.706;23.306;2023-02-03T11:47:14;1.85;;;1.63;;
43933;SDS011;59081;42.706;23.306;2023-02-03T11:52:57;4.25;;;1.83;;
43933;SDS011;59081;42.706;23.306;2023-02-03T11:55:55;3.60;;;1.83;;
43933;SDS011;59081;42.706;23.306;2023-02-03T12:07:42;2.00;;;1.30;;
43933;SDS011;59081;42.706;23.306;2023-02-03T12:16:17;3.15;;;1.17;;
43933;SDS011;59081;42.706;23.306;2023-02-03T12:18:55;2.10;;;1.02;;
43933;SDS011;59081;42.706;23.306;2023-02-03T12:21:45;1.05;;;0.95;;
43933;SDS011;59081;42.706;23.306;2023-02-03T12:27:29;4.45;;;1.45;;
43933;SDS011;59081;42.706;23.306;2023-02-03T12:30:42;1.83;;;1.33;;
43933;SDS011;59081;42.706;23.306;2023-02-03T12:33:11;1.10;;;1.00;;
43933;SDS011;59081;42.706;23.306;2023-02-03T12:35:50;1.50;;;1.25;;
43933;SDS011;59081;42.706;23.306;2023-02-03T12:38:32;1.05;;;0.95;;
43933;SDS011;59081;42.706;23.306;2023-02-03T12:44:07;4.30;;;2.00;;
43933;SDS011;59081;42.706;23.306;2023-02-03T12:46:50;6.22;;;1.52;;
43933;SDS011;59081;42.706;23.306;2023-02-03T12:49:49;2.47;;;1.67;;
43933;SDS011;59081;42.706;23.306;2023-02-03T12:52:41;1.17;;;1.05;;
43933;SDS011;59081;42.706;23.306;2023-02-03T13:01:01;3.85;;;1.80;;
43933;SDS011;59081;42.706;23.306;2023-02-03T13:03:47;2.22;;;1.40;;
43933;SDS011;59081;42.706;23.306;2023-02-03T13:17:29;6.35;;;2.17;;
43933;SDS011;59081;42.706;23.306;2023-02-03T13:20:14;1.58;;;1.40;;
43933;SDS011;59081;42.706;23.306;2023-02-03T13:22:45;4.47;;;1.45;;
43933;SDS011;59081;42.706;23.306;2023-02-03T13:28:05;2.08;;;1.50;;
43933;SDS011;59081;42.706;23.306;2023-02-03T13:38:55;2.78;;;1.85;;
43933;SDS011;59081;42.706;23.306;2023-02-03T13:41:43;2.95;;;1.88;;
43933;SDS011;59081;42.706;23.306;2023-02-03T13:44:35;4.35;;;2.92;;
43933;SDS011;59081;42.706;23.306;2023-02-03T13:49:30;2.47;;;1.83;;
43933;SDS011;59081;42.706;23.306;2023-02-03T13:51:59;5.30;;;2.30;;
43933;SDS011;59081;42.706;23.306;2023-02-03T13:54:26;4.25;;;1.80;;
43933;SDS011;59081;42.706;23.306;2023-02-03T13:56:59;4.68;;;1.92;;
43933;SDS011;59081;42.706;23.306;2023-02-03T14:23:25;6.97;;;2.88;;
43933;SDS011;59081;42.706;23.306;2023-02-03T14:25:55;4.28;;;2.80;;
43933;SDS011;59081;42.706;23.306;2023-02-03T14:28:39;4.47;;;2.78;;
43933;SDS011;59081;42.706;23.306;2023-02-03T14:36:28;4.97;;;3.47;;
43933;SDS011;59081;42.706;23.306;2023-02-03T14:39:00;6.57;;;3.70;;
43933;SDS011;59081;42.706;23.306;2023-02-03T14:41:32;7.28;;;2.97;;
43933;SDS011;59081;42.706;23.306;2023-02-03T14:44:30;11.77;;;5.00;;
43933;SDS011;59081;42.706;23.306;2023-02-03T14:58:30;4.28;;;2.78;;
43933;SDS011;59081;42.706;23.306;2023-02-03T15:01:05;6.57;;;2.50;;
43933;SDS011;59081;42.706;23.306;2023-02-03T15:06:52;3.05;;;1.80;;
43933;SDS011;59081;42.706;23.306;2023-02-03T15:09:20;2.25;;;1.90;;
43933;SDS011;59081;42.706;23.306;2023-02-03T15:11:52;4.65;;;2.70;;
43933;SDS011;59081;42.706;23.306;2023-02-03T15:14:20;4.50;;;2.30;;
43933;SDS011;59081;42.706;23.306;2023-02-03T15:17:10;3.70;;;2.30;;
43933;SDS011;59081;42.706;23.306;2023-02-03T15:19:39;6.53;;;2.72;;
43933;SDS011;59081;42.706;23.306;2023-02-03T15:22:26;5.57;;;3.35;;
43933;SDS011;59081;42.706;23.306;2023-02-03T15:24:57;4.15;;;2.55;;
43933;SDS011;59081;42.706;23.306;2023-02-03T15:27:29;6.35;;;2.92;;
43933;SDS011;59081;42.706;23.306;2023-02-03T15:29:56;9.93;;;4.03;;
43933;SDS011;59081;42.706;23.306;2023-02-03T15:32:26;5.97;;;3.30;;
43933;SDS011;59081;42.706;23.306;2023-02-03T15:34:56;5.03;;;3.15;;
43933;SDS011;59081;42.706;23.306;2023-02-03T15:40:22;7.25;;;3.53;;
43933;SDS011;59081;42.706;23.306;2023-02-03T15:43:01;4.93;;;3.08;;
43933;SDS011;59081;42.706;23.306;2023-02-03T15:45:32;5.25;;;3.13;;
43933;SDS011;59081;42.706;23.306;2023-02-03T15:48:04;8.32;;;3.75;;
43933;SDS011;59081;42.706;23.306;2023-02-03T15:50:42;5.13;;;3.25;;
43933;SDS011;59081;42.706;23.306;2023-02-03T15:56:12;7.50;;;3.75;;
43933;SDS011;59081;42.706;23.306;2023-02-03T15:58:45;6.20;;;3.70;;
43933;SDS011;59081;42.706;23.306;2023-02-03T16:01:12;5.70;;;3.08;;
43933;SDS011;59081;42.706;23.306;2023-02-03T16:03:46;6.38;;;3.53;;
43933;SDS011;59081;42.706;23.306;2023-02-03T16:09:01;7.25;;;4.15;;
43933;SDS011;59081;42.706;23.306;2023-02-03T16:14:01;6.97;;;3.42;;
43933;SDS011;59081;42.706;23.306;2023-02-03T16:19:20;8.98;;;3.53;;
43933;SDS011;59081;42.706;23.306;2023-02-03T16:30:25;8.70;;;3.65;;
43933;SDS011;59081;42.706;23.306;2023-02-03T16:35:54;6.45;;;2.97;;
43933;SDS011;59081;42.706;23.306;2023-02-03T16:41:30;7.15;;;4.72;;
43933;SDS011;59081;42.706;23.306;2023-02-03T16:44:15;6.82;;;2.83;;
43933;SDS011;59081;42.706;23.306;2023-02-03T16:47:00;6.15;;;2.65;;
43933;SDS011;59081;42.706;23.306;2023-02-03T16:49:45;7.53;;;3.33;;
43933;SDS011;59081;42.706;23.306;2023-02-03T16:52:30;6.85;;;3.55;;
43933;SDS011;59081;42.706;23.306;2023-02-03T16:54:56;6.22;;;3.45;;
43933;SDS011;59081;42.706;23.306;2023-02-03T16:57:22;6.55;;;3.92;;
43933;SDS011;59081;42.706;23.306;2023-02-03T16:59:48;6.10;;;4.07;;
43933;SDS011;59081;42.706;23.306;2023-02-03T17:02:14;18.20;;;7.15;;
43933;SDS011;59081;42.706;23.306;2023-02-03T17:04:40;8.77;;;3.63;;
43933;SDS011;59081;42.706;23.306;2023-02-03T17:07:05;7.05;;;3.47;;
43933;SDS011;59081;42.706;23.306;2023-02-03T17:09:31;5.75;;;3.33;;
43933;SDS011;59081;42.706;23.306;2023-02-03T17:12:00;6.22;;;2.92;;
43933;SDS011;59081;42.706;23.306;2023-02-03T17:14:26;7.53;;;4.22;;
43933;SDS011;59081;42.706;23.306;2023-02-03T17:16:52;6.85;;;3.33;;
43933;SDS011;59081;42.706;23.306;2023-02-03T17:19:18;9.45;;;4.97;;
43933;SDS011;59081;42.706;23.306;2023-02-03T17:21:44;10.18;;;4.10;;
43933;SDS011;59081;42.706;23.306;2023-02-03T17:24:09;10.52;;;4.38;;
43933;SDS011;59081;42.706;23.306;2023-02-03T17:26:36;14.52;;;4.60;;
43933;SDS011;59081;42.706;23.306;2023-02-03T17:29:02;9.73;;;5.35;;
43933;SDS011;59081;42.706;23.306;2023-02-03T17:31:28;14.65;;;5.35;;
43933;SDS011;59081;42.706;23.306;2023-02-03T17:33:54;11.73;;;5.45;;
43933;SDS011;59081;42.706;23.306;2023-02-03T17:36:22;15.75;;;7.20;;
43933;SDS011;59081;42.706;23.306;2023-02-03T17:38:54;19.13;;;10.25;;
43933;SDS011;59081;42.706;23.306;2023-02-03T17:41:24;21.85;;;9.05;;
43933;SDS011;59081;42.706;23.306;2023-02-03T17:43:51;18.40;;;8.02;;
43933;SDS011;59081;42.706;23.306;2023-02-03T17:46:18;19.77;;;11.27;;